createdAt,value
2023-02-18T00:00:05.120Z,1.20
2023-02-18T00:02:52.655Z,1.70
2023-02-18T00:05:38.338Z,1.63
2023-02-18T00:08:23.998Z,1.40
2023-02-18T00:11:10.166Z,2.25
2023-02-18T00:13:58.173Z,1.35
2023-02-18T00:16:45.082Z,1.42
2023-02-18T00:19:30.781Z,1.33
2023-02-18T00:22:16.343Z,1.50
2023-02-18T00:25:01.823Z,1.27
2023-02-18T00:27:47.391Z,2.42
2023-02-18T00:30:33.095Z,2.05
2023-02-18T00:33:18.884Z,3.15
2023-02-18T00:36:07.412Z,1.55
2023-02-18T00:38:56.173Z,1.80
2023-02-18T00:41:42.519Z,1.13
2023-02-18T00:44:27.909Z,1.98
2023-02-18T00:47:13.570Z,1.80
2023-02-18T00:49:59.216Z,1.00
2023-02-18T00:52:44.720Z,1.10
2023-02-18T00:55:30.633Z,1.10
2023-02-18T00:58:16.351Z,1.40
2023-02-18T01:01:02.252Z,2.13
2023-02-18T01:03:48.141Z,2.10
2023-02-18T01:06:33.803Z,1.65
2023-02-18T01:09:19.375Z,2.20
2023-02-18T01:12:05.132Z,1.33
2023-02-18T01:14:50.517Z,2.00
2023-02-18T01:17:36.088Z,1.70
2023-02-18T01:20:21.596Z,1.00
2023-02-18T01:23:07.341Z,1.83
2023-02-18T01:25:52.934Z,1.63
2023-02-18T01:28:40.514Z,2.55
2023-02-18T01:31:26.330Z,1.83
2023-02-18T01:34:12.054Z,1.98
2023-02-18T01:36:57.705Z,2.13
2023-02-18T01:39:43.467Z,1.27
2023-02-18T01:42:30.023Z,1.63
2023-02-18T01:45:33.446Z,1.40
2023-02-18T01:48:23.457Z,1.52
2023-02-18T01:51:23.645Z,1.95
2023-02-18T01:54:14.699Z,0.85
2023-02-18T01:57:09.316Z,2.40
2023-02-18T01:59:57.694Z,1.15
2023-02-18T02:02:46.479Z,1.45
2023-02-18T02:05:33.693Z,1.73
2023-02-18T02:08:19.090Z,1.17
2023-02-18T02:11:11.418Z,1.77
2023-02-18T02:14:19.027Z,2.00
2023-02-18T02:17:11.222Z,1.50
2023-02-18T02:20:31.041Z,1.63
2023-02-18T02:23:41.321Z,1.15
2023-02-18T02:26:38.248Z,1.90
2023-02-18T02:29:32.774Z,1.47
2023-02-18T02:32:55.738Z,1.60
2023-02-18T02:35:59.944Z,1.20
2023-02-18T02:39:04.851Z,0.88
2023-02-18T02:41:59.471Z,1.75
2023-02-18T02:45:01.817Z,1.50
2023-02-18T02:47:54.783Z,2.00
2023-02-18T02:50:46.823Z,1.88
2023-02-18T02:53:34.828Z,1.13
2023-02-18T02:56:25.189Z,1.50
2023-02-18T02:59:18.324Z,1.08
2023-02-18T03:02:26.590Z,2.10
2023-02-18T03:05:30.282Z,1.17
2023-02-18T03:08:40.706Z,1.50
2023-02-18T03:11:33.381Z,1.13
2023-02-18T03:14:30.563Z,1.30
2023-02-18T03:17:20.835Z,1.00
2023-02-18T03:20:18.317Z,1.60
2023-02-18T03:23:10.650Z,1.55
2023-02-18T03:25:58.234Z,2.08
2023-02-18T03:28:46.172Z,0.90
2023-02-18T03:31:35.493Z,1.20
2023-02-18T03:34:28.376Z,1.65
2023-02-18T03:37:14.948Z,1.73
2023-02-18T03:40:01.906Z,0.98
2023-02-18T03:42:47.303Z,0.85
2023-02-18T03:45:32.826Z,1.15
2023-02-18T03:48:18.589Z,1.40
2023-02-18T03:51:04.213Z,1.30
2023-02-18T03:53:49.870Z,1.13
2023-02-18T03:56:36.946Z,1.40
2023-02-18T03:59:22.545Z,2.10
2023-02-18T04:02:07.722Z,1.00
2023-02-18T04:04:53.491Z,1.13
2023-02-18T04:07:39.125Z,0.70
2023-02-18T04:10:24.447Z,0.98
2023-02-18T04:13:09.829Z,1.20
2023-02-18T04:15:55.435Z,1.33
2023-02-18T04:18:41.014Z,1.60
2023-02-18T04:21:26.616Z,1.80
2023-02-18T04:24:11.998Z,1.40
2023-02-18T04:26:57.715Z,1.10
2023-02-18T04:29:43.225Z,1.70
2023-02-18T04:32:29.154Z,1.08
2023-02-18T04:35:15.155Z,1.30
2023-02-18T04:38:00.417Z,1.03
2023-02-18T04:40:45.943Z,1.20
2023-02-18T04:43:31.315Z,1.15
2023-02-18T04:46:16.673Z,1.00
2023-02-18T04:49:02.431Z,0.60
2023-02-18T04:51:48.115Z,0.90
2023-02-18T04:54:33.651Z,1.90
2023-02-18T04:57:19.376Z,0.80
2023-02-18T05:00:07.019Z,0.73
2023-02-18T05:02:52.346Z,0.77
2023-02-18T05:05:38.076Z,1.40
2023-02-18T05:08:23.870Z,0.73
2023-02-18T05:11:09.919Z,0.80
2023-02-18T05:13:55.412Z,1.58
2023-02-18T05:16:40.650Z,0.93
2023-02-18T05:19:26.344Z,0.50
2023-02-18T05:22:11.693Z,1.00
2023-02-18T05:24:57.117Z,0.80
2023-02-18T05:27:42.878Z,1.50
2023-02-18T05:30:28.294Z,1.55
2023-02-18T05:33:13.932Z,0.98
2023-02-18T05:35:59.628Z,1.05
2023-02-18T05:38:45.190Z,0.68
2023-02-18T05:41:30.928Z,0.77
2023-02-18T05:44:31.339Z,1.15
2023-02-18T05:47:16.896Z,1.20
2023-02-18T05:50:02.827Z,0.80
2023-02-18T05:52:48.085Z,1.10
2023-02-18T05:55:37.708Z,0.90
2023-02-18T05:58:23.101Z,1.10
2023-02-18T06:01:08.670Z,0.85
2023-02-18T06:03:54.159Z,1.00
2023-02-18T06:06:40.035Z,1.48
2023-02-18T06:09:25.360Z,1.20
2023-02-18T06:12:10.797Z,0.95
2023-02-18T06:14:56.170Z,0.90
2023-02-18T06:17:41.941Z,0.95
2023-02-18T06:20:27.281Z,1.20
2023-02-18T06:23:12.740Z,0.90
2023-02-18T06:25:58.376Z,0.77
2023-02-18T06:28:43.692Z,1.27
2023-02-18T06:31:29.278Z,1.13
2023-02-18T06:34:15.060Z,1.60
2023-02-18T06:37:01.472Z,1.02
2023-02-18T06:39:47.251Z,0.55
2023-02-18T06:42:32.716Z,0.98
2023-02-18T06:45:18.043Z,0.75
2023-02-18T06:48:03.603Z,1.17
2023-02-18T06:50:49.778Z,0.97
2023-02-18T06:53:35.235Z,1.57
2023-02-18T06:56:20.838Z,1.17
2023-02-18T06:59:06.393Z,1.20
2023-02-18T07:01:51.837Z,0.70
2023-02-18T07:04:37.283Z,1.87
2023-02-18T07:07:22.933Z,0.70
2023-02-18T07:10:08.622Z,0.93
2023-02-18T07:12:54.032Z,0.77
2023-02-18T07:15:40.054Z,1.00
2023-02-18T07:18:25.429Z,0.75
2023-02-18T07:21:11.251Z,0.98
2023-02-18T07:23:56.596Z,1.48
2023-02-18T07:26:42.112Z,1.35
2023-02-18T07:29:27.680Z,1.33
2023-02-18T07:32:13.961Z,0.60
2023-02-18T07:34:59.583Z,0.97
2023-02-18T07:37:49.143Z,1.30
2023-02-18T07:40:34.474Z,0.90
2023-02-18T07:43:20.843Z,1.50
2023-02-18T07:46:07.142Z,0.95
2023-02-18T07:48:52.837Z,0.88
2023-02-18T07:51:40.211Z,0.95
2023-02-18T07:54:26.192Z,0.70
2023-02-18T07:57:11.516Z,1.10
2023-02-18T07:59:57.239Z,1.50
2023-02-18T08:02:42.524Z,0.80
2023-02-18T08:05:28.256Z,1.73
2023-02-18T08:08:15.433Z,0.90
2023-02-18T08:11:13.384Z,0.90
2023-02-18T08:14:03.934Z,1.33
2023-02-18T08:16:49.715Z,1.08
2023-02-18T08:19:35.287Z,0.80
2023-02-18T08:22:20.849Z,1.45
2023-02-18T08:25:06.888Z,0.60
2023-02-18T08:27:52.605Z,1.35
2023-02-18T08:30:38.374Z,1.13
2023-02-18T08:33:25.211Z,1.17
2023-02-18T08:36:11.015Z,1.80
2023-02-18T08:38:57.538Z,1.07
2023-02-18T08:41:42.894Z,1.05
2023-02-18T08:44:28.585Z,1.17
2023-02-18T08:48:17.200Z,2.00
2023-02-18T08:50:20.851Z,1.58
2023-02-18T08:53:06.196Z,1.25
2023-02-18T08:55:51.922Z,1.88
2023-02-18T08:58:37.975Z,1.33
2023-02-18T09:01:23.732Z,1.23
2023-02-18T09:04:08.988Z,1.67
2023-02-18T09:06:54.446Z,2.45
2023-02-18T09:09:39.832Z,1.60
2023-02-18T09:12:25.475Z,2.10
2023-02-18T09:15:11.222Z,1.60
2023-02-18T09:17:56.532Z,2.15
2023-02-18T09:20:42.355Z,1.48
2023-02-18T09:23:29.127Z,1.23
2023-02-18T09:26:16.890Z,1.20
2023-02-18T09:29:02.492Z,1.23
2023-02-18T09:31:47.805Z,1.92
2023-02-18T09:34:34.292Z,1.25
2023-02-18T09:37:19.981Z,1.10
2023-02-18T09:40:06.064Z,1.23
2023-02-18T09:42:51.577Z,1.07
2023-02-18T09:45:38.210Z,0.80
2023-02-18T09:48:32.990Z,1.00
2023-02-18T09:51:19.306Z,0.87
2023-02-18T09:54:05.027Z,0.75
2023-02-18T09:56:51.811Z,0.77
2023-02-18T09:59:37.323Z,0.63
2023-02-18T10:02:24.292Z,0.70
2023-02-18T10:05:15.316Z,0.50
2023-02-18T10:08:19.631Z,0.50
2023-02-18T10:11:12.304Z,0.55
2023-02-18T10:14:00.954Z,0.43
2023-02-18T10:16:49.154Z,0.30
2023-02-18T10:19:38.512Z,0.50
2023-02-18T10:22:25.814Z,0.38
2023-02-18T10:25:18.903Z,0.40
2023-02-18T10:28:04.404Z,0.38
2023-02-18T10:30:58.440Z,0.40
2023-02-18T10:34:03.932Z,0.30
2023-02-18T10:37:18.129Z,0.43
2023-02-18T10:40:25.324Z,0.40
2023-02-18T10:43:29.366Z,0.57
2023-02-18T10:46:27.874Z,0.30
2023-02-18T10:49:55.413Z,0.35
2023-02-18T10:52:47.884Z,0.20
2023-02-18T10:55:36.244Z,0.20
2023-02-18T10:58:34.626Z,0.40
2023-02-18T11:01:20.935Z,0.20
2023-02-18T11:04:18.031Z,0.35
2023-02-18T11:07:06.341Z,0.43
2023-02-18T11:09:57.670Z,0.30
2023-02-18T11:12:49.088Z,0.32
2023-02-18T11:15:35.831Z,0.25
2023-02-18T11:18:36.513Z,0.43
2023-02-18T11:21:26.558Z,0.30
2023-02-18T11:24:16.171Z,0.20
2023-02-18T11:27:01.585Z,0.30
2023-02-18T11:29:51.561Z,0.20
2023-02-18T11:32:37.567Z,0.20
2023-02-18T11:35:27.200Z,0.20
2023-02-18T11:38:26.154Z,0.20
2023-02-18T11:41:15.117Z,0.17
2023-02-18T11:44:02.169Z,0.20
2023-02-18T11:46:58.625Z,0.20
2023-02-18T11:49:58.912Z,0.32
2023-02-18T11:52:49.179Z,0.20
2023-02-18T11:55:34.882Z,0.20
2023-02-18T11:58:20.242Z,0.15
2023-02-18T12:01:12.955Z,0.25
2023-02-18T12:04:17.165Z,0.32
2023-02-18T12:07:05.400Z,0.20
2023-02-18T12:09:56.400Z,0.40
2023-02-18T12:12:48.118Z,0.20
2023-02-18T12:16:14.496Z,0.22
2023-02-18T12:19:46.009Z,0.30
2023-02-18T12:22:42.749Z,0.30
2023-02-18T12:25:37.557Z,0.40
2023-02-18T12:28:47.430Z,0.43
2023-02-18T12:31:47.851Z,0.50
2023-02-18T12:34:47.339Z,0.47
2023-02-18T12:37:50.860Z,0.35
2023-02-18T12:40:57.529Z,0.20
2023-02-18T12:43:58.374Z,0.20
2023-02-18T12:46:55.038Z,0.30
2023-02-18T12:50:17.281Z,0.28
2023-02-18T12:53:41.706Z,0.25
2023-02-18T12:56:39.032Z,0.25
2023-02-18T12:59:45.357Z,0.28
2023-02-18T13:02:45.550Z,0.20
2023-02-18T13:05:55.258Z,0.20
2023-02-18T13:09:07.015Z,0.25
2023-02-18T13:12:17.891Z,0.30
2023-02-18T13:15:13.507Z,0.20
2023-02-18T13:18:03.262Z,0.20
2023-02-18T13:20:56.254Z,0.35
2023-02-18T13:23:53.579Z,0.20
2023-02-18T13:26:41.667Z,0.30
2023-02-18T13:29:44.698Z,0.20
2023-02-18T13:33:01.274Z,0.20
2023-02-18T13:36:12.473Z,0.15
2023-02-18T13:39:11.369Z,0.20
2023-02-18T13:42:24.613Z,0.10
2023-02-18T13:45:33.302Z,0.20
2023-02-18T13:48:26.776Z,0.20
2023-02-18T13:51:14.246Z,0.28
2023-02-18T13:54:17.763Z,0.20
2023-02-18T13:57:25.783Z,0.20
2023-02-18T14:00:25.220Z,0.40
2023-02-18T14:03:42.848Z,0.52
2023-02-18T14:06:34.268Z,0.22
2023-02-18T14:09:25.597Z,0.15
2023-02-18T14:12:25.640Z,0.40
2023-02-18T14:15:19.885Z,0.50
2023-02-18T14:18:14.026Z,0.28
2023-02-18T14:21:05.535Z,0.30
2023-02-18T14:23:53.572Z,0.25
2023-02-18T14:26:48.420Z,0.50
2023-02-18T14:29:33.888Z,0.70
2023-02-18T14:32:21.025Z,0.80
2023-02-18T14:35:25.556Z,0.40
2023-02-18T14:38:33.642Z,0.50
2023-02-18T14:41:55.856Z,0.60
2023-02-18T14:45:03.066Z,0.60
2023-02-18T14:48:18.810Z,0.50
2023-02-18T14:51:05.566Z,0.50
2023-02-18T14:53:51.599Z,0.95
2023-02-18T14:56:53.260Z,0.80
2023-02-18T14:59:41.570Z,0.70
2023-02-18T15:02:31.022Z,0.60
2023-02-18T15:05:20.472Z,0.90
2023-02-18T15:08:15.420Z,1.15
2023-02-18T15:11:07.438Z,0.93
2023-02-18T15:13:53.189Z,0.82
2023-02-18T15:16:39.615Z,0.60
2023-02-18T15:19:28.733Z,1.17
2023-02-18T15:22:20.082Z,0.80
2023-02-18T15:25:06.420Z,1.10
2023-02-18T15:27:52.452Z,0.95
2023-02-18T15:30:39.076Z,1.00
2023-02-18T15:33:25.069Z,0.95
2023-02-18T15:36:14.702Z,1.45
2023-02-18T15:39:00.528Z,1.25
2023-02-18T15:41:47.077Z,1.42
2023-02-18T15:44:35.829Z,1.13
2023-02-18T15:47:22.097Z,0.90
2023-02-18T15:50:26.948Z,1.13
2023-02-18T15:53:16.333Z,1.65
2023-02-18T15:56:07.081Z,1.00
2023-02-18T15:59:07.589Z,1.02
2023-02-18T16:01:55.898Z,1.13
2023-02-18T16:04:45.697Z,1.07
2023-02-18T16:07:38.116Z,0.93
2023-02-18T16:10:33.163Z,0.85
2023-02-18T16:13:19.218Z,1.20
2023-02-18T16:16:05.800Z,1.38
2023-02-18T16:18:51.278Z,1.17
2023-02-18T16:21:39.790Z,0.82
2023-02-18T16:24:28.587Z,1.00
2023-02-18T16:27:16.673Z,1.17
2023-02-18T16:30:15.473Z,1.08
2023-02-18T16:33:01.391Z,1.52
2023-02-18T16:35:50.258Z,1.23
2023-02-18T16:38:36.416Z,1.33
2023-02-18T16:41:21.900Z,1.08
2023-02-18T16:44:13.039Z,0.80
2023-02-18T16:46:58.693Z,1.90
2023-02-18T16:49:49.314Z,0.70
2023-02-18T16:52:34.695Z,0.93
2023-02-18T16:55:23.230Z,1.20
2023-02-18T16:58:08.626Z,0.93
2023-02-18T17:00:54.378Z,1.85
2023-02-18T17:03:39.764Z,0.98
2023-02-18T17:06:25.456Z,0.70
2023-02-18T17:09:17.681Z,0.50
2023-02-18T17:12:03.485Z,0.40
2023-02-18T17:14:48.962Z,0.93
2023-02-18T17:17:34.598Z,0.40
2023-02-18T17:20:20.489Z,1.00
2023-02-18T17:23:05.857Z,0.98
2023-02-18T17:25:52.918Z,0.60
2023-02-18T17:28:38.445Z,0.68
2023-02-18T17:31:29.732Z,0.60
2023-02-18T17:34:26.489Z,0.90
2023-02-18T17:37:14.764Z,1.13
2023-02-18T17:40:00.092Z,0.60
2023-02-18T17:42:45.768Z,1.00
2023-02-18T17:45:36.930Z,0.52
2023-02-18T17:48:23.295Z,0.57
2023-02-18T17:51:22.766Z,0.90
2023-02-18T17:54:17.226Z,0.30
2023-02-18T17:57:02.885Z,0.20
2023-02-18T17:59:48.464Z,0.20
2023-02-18T18:02:33.794Z,0.50
2023-02-18T18:05:28.269Z,0.30
2023-02-18T18:08:14.130Z,0.20
2023-02-18T18:11:01.046Z,0.55
2023-02-18T18:13:46.623Z,0.65
2023-02-18T18:16:32.277Z,0.90
2023-02-18T18:19:17.661Z,1.17
2023-02-18T18:22:04.179Z,1.23
2023-02-18T18:24:50.203Z,1.00
2023-02-18T18:27:35.701Z,1.30
2023-02-18T18:30:29.985Z,0.90
2023-02-18T18:33:27.739Z,1.00
2023-02-18T18:36:13.377Z,0.90
2023-02-18T18:38:59.116Z,1.05
2023-02-18T18:41:44.571Z,0.80
2023-02-18T18:44:30.194Z,0.77
2023-02-18T18:47:15.977Z,0.90
2023-02-18T18:50:01.332Z,1.10
2023-02-18T18:52:47.573Z,1.35
2023-02-18T18:55:38.305Z,1.63
2023-02-18T18:58:26.904Z,1.20
2023-02-18T19:01:18.118Z,1.13
2023-02-18T19:04:03.854Z,1.27
2023-02-18T19:06:49.368Z,1.60
2023-02-18T19:09:34.869Z,1.45
2023-02-18T19:12:20.500Z,1.48
2023-02-18T19:15:06.159Z,1.40
2023-02-18T19:17:54.107Z,1.80
2023-02-18T19:20:41.431Z,1.70
2023-02-18T19:23:28.212Z,1.85
2023-02-18T19:26:15.792Z,1.80
2023-02-18T19:29:01.219Z,1.60
2023-02-18T19:31:46.591Z,1.50
2023-02-18T19:34:32.053Z,1.35
2023-02-18T19:37:17.403Z,1.63
2023-02-18T19:40:04.147Z,1.58
2023-02-18T19:42:50.053Z,1.60
2023-02-18T19:45:42.502Z,1.65
2023-02-18T19:48:28.558Z,1.67
2023-02-18T19:51:14.504Z,1.58
2023-02-18T19:54:00.382Z,1.70
2023-02-18T19:56:45.973Z,1.67
2023-02-18T19:59:31.542Z,1.77
2023-02-18T20:02:20.966Z,1.50
2023-02-18T20:05:07.390Z,1.67
2023-02-18T20:07:52.777Z,1.45
2023-02-18T20:10:38.273Z,1.50
2023-02-18T20:13:23.941Z,1.65
2023-02-18T20:16:09.880Z,1.75
2023-02-18T20:18:55.524Z,1.40
2023-02-18T20:21:40.954Z,1.65
2023-02-18T20:24:31.271Z,1.50
2023-02-18T20:27:17.440Z,1.77
2023-02-18T20:30:07.718Z,1.70
2023-02-18T20:32:53.516Z,1.42
2023-02-18T20:35:39.114Z,1.25
2023-02-18T20:38:24.767Z,1.20
2023-02-18T20:41:14.242Z,0.95
2023-02-18T20:44:01.866Z,1.05
2023-02-18T20:46:49.119Z,0.90
2023-02-18T20:49:35.457Z,0.90
2023-02-18T20:52:20.913Z,1.00
2023-02-18T20:55:06.493Z,0.80
2023-02-18T20:57:51.842Z,0.95
2023-02-18T21:00:37.287Z,0.70
2023-02-18T21:03:22.890Z,0.80
2023-02-18T21:06:15.408Z,0.73
2023-02-18T21:09:01.044Z,0.60
2023-02-18T21:11:46.571Z,0.80
2023-02-18T21:14:32.039Z,1.00
2023-02-18T21:17:17.405Z,0.80
2023-02-18T21:20:03.816Z,1.40
2023-02-18T21:22:49.520Z,1.30
2023-02-18T21:25:36.265Z,1.73
2023-02-18T21:28:21.592Z,2.03
2023-02-18T21:31:18.898Z,2.15
2023-02-18T21:34:05.948Z,2.60
2023-02-18T21:36:51.558Z,2.13
2023-02-18T21:39:36.971Z,1.92
2023-02-18T21:42:22.445Z,2.90
2023-02-18T21:45:08.781Z,2.00
2023-02-18T21:47:54.227Z,2.05
2023-02-18T21:50:39.494Z,1.77
2023-02-18T21:53:25.236Z,2.25
2023-02-18T21:56:11.675Z,2.15
2023-02-18T21:58:57.094Z,2.60
2023-02-18T22:01:42.778Z,2.20
2023-02-18T22:04:30.620Z,1.92
2023-02-18T22:07:17.468Z,2.33
2023-02-18T22:10:02.790Z,2.28
2023-02-18T22:12:48.485Z,2.45
2023-02-18T22:15:33.895Z,2.53
2023-02-18T22:18:19.727Z,2.40
2023-02-18T22:21:08.969Z,2.10
2023-02-18T22:23:54.924Z,2.00
2023-02-18T22:26:41.306Z,1.73
2023-02-18T22:29:27.988Z,2.17
2023-02-18T22:32:14.146Z,2.35
2023-02-18T22:34:59.876Z,1.98
2023-02-18T22:37:45.636Z,1.97
2023-02-18T22:40:31.123Z,2.08
2023-02-18T22:43:16.678Z,2.10
2023-02-18T22:46:06.540Z,1.90
2023-02-18T22:48:52.816Z,2.13
2023-02-18T22:51:40.556Z,2.00
2023-02-18T22:54:26.326Z,1.60
2023-02-18T22:57:11.657Z,2.05
2023-02-18T22:59:57.374Z,1.90
2023-02-18T23:02:42.852Z,2.10
2023-02-18T23:05:28.099Z,2.20
2023-02-18T23:08:13.776Z,1.90
2023-02-18T23:11:01.128Z,1.50
2023-02-18T23:14:06.242Z,1.70
2023-02-18T23:17:13.954Z,1.60
2023-02-18T23:19:59.453Z,1.73
2023-02-18T23:22:44.820Z,1.70
2023-02-18T23:25:32.175Z,1.60
2023-02-18T23:28:17.391Z,1.70
2023-02-18T23:31:03.203Z,2.22
2023-02-18T23:33:50.509Z,1.88
2023-02-18T23:36:36.616Z,1.88
2023-02-18T23:39:22.800Z,1.80
2023-02-18T23:42:08.354Z,1.50
2023-02-18T23:44:54.997Z,2.13
2023-02-18T23:47:40.435Z,1.50
2023-02-18T23:50:26.077Z,1.42
2023-02-18T23:53:11.498Z,1.73
2023-02-18T23:56:01.723Z,1.60
2023-02-18T23:58:54.690Z,2.00
